sensor_id;sensor_type;location;lat;lon;timestamp;temperature;humidity
44695;DHT22;32845;59.422;17.930;2022-09-21T00:04:11;4.60;99.90
44695;DHT22;32845;59.422;17.930;2022-09-21T00:08:43;4.50;99.90
44695;DHT22;32845;59.422;17.930;2022-09-21T00:13:14;4.50;99.90
44695;DHT22;32845;59.422;17.930;2022-09-21T00:17:50;4.50;99.90
44695;DHT22;32845;59.422;17.930;2022-09-21T00:22:21;4.50;99.90
44695;DHT22;32845;59.422;17.930;2022-09-21T00:26:57;4.40;99.90
44695;DHT22;32845;59.422;17.930;2022-09-21T00:31:28;4.40;99.90
44695;DHT22;32845;59.422;17.930;2022-09-21T00:36:05;4.30;99.90
44695;DHT22;32845;59.422;17.930;2022-09-21T00:40:36;4.30;99.90
44695;DHT22;32845;59.422;17.930;2022-09-21T00:45:11;4.30;99.90
44695;DHT22;32845;59.422;17.930;2022-09-21T00:49:52;4.20;99.90
44695;DHT22;32845;59.422;17.930;2022-09-21T00:54:28;4.20;99.90
44695;DHT22;32845;59.422;17.930;2022-09-21T00:59:00;4.30;99.90
44695;DHT22;32845;59.422;17.930;2022-09-21T01:03:32;4.20;99.90
44695;DHT22;32845;59.422;17.930;2022-09-21T01:08:04;4.20;99.90
44695;DHT22;32845;59.422;17.930;2022-09-21T01:32:21;4.00;99.90
44695;DHT22;32845;59.422;17.930;2022-09-21T01:36:56;3.90;99.90
44695;DHT22;32845;59.422;17.930;2022-09-21T01:41:29;3.90;99.90
44695;DHT22;32845;59.422;17.930;2022-09-21T01:46:03;3.90;99.90
44695;DHT22;32845;59.422;17.930;2022-09-21T01:50:37;3.90;99.90
44695;DHT22;32845;59.422;17.930;2022-09-21T01:55:20;4.00;99.90
44695;DHT22;32845;59.422;17.930;2022-09-21T01:59:52;3.90;99.90
44695;DHT22;32845;59.422;17.930;2022-09-21T02:04:23;4.00;99.90
44695;DHT22;32845;59.422;17.930;2022-09-21T02:08:54;4.00;99.90
44695;DHT22;32845;59.422;17.930;2022-09-21T02:13:27;4.00;99.90
44695;DHT22;32845;59.422;17.930;2022-09-21T02:18:06;4.10;99.90
44695;DHT22;32845;59.422;17.930;2022-09-21T02:32:24;4.40;99.90
44695;DHT22;32845;59.422;17.930;2022-09-21T02:41:51;4.50;99.90
44695;DHT22;32845;59.422;17.930;2022-09-21T02:46:38;4.60;99.90
44695;DHT22;32845;59.422;17.930;2022-09-21T02:51:15;4.70;99.90
44695;DHT22;32845;59.422;17.930;2022-09-21T02:55:48;4.80;99.90
44695;DHT22;32845;59.422;17.930;2022-09-21T03:00:21;4.80;99.90
44695;DHT22;32845;59.422;17.930;2022-09-21T03:04:57;4.90;99.90
44695;DHT22;32845;59.422;17.930;2022-09-21T03:09:27;4.90;99.90
44695;DHT22;32845;59.422;17.930;2022-09-21T03:13:58;5.00;99.90
44695;DHT22;32845;59.422;17.930;2022-09-21T03:18:34;5.00;99.90
44695;DHT22;32845;59.422;17.930;2022-09-21T03:23:05;5.10;99.90
44695;DHT22;32845;59.422;17.930;2022-09-21T03:27:36;5.10;99.90
44695;DHT22;32845;59.422;17.930;2022-09-21T03:32:07;5.10;99.90
44695;DHT22;32845;59.422;17.930;2022-09-21T03:36:43;5.20;99.90
44695;DHT22;32845;59.422;17.930;2022-09-21T03:41:13;5.10;99.90
44695;DHT22;32845;59.422;17.930;2022-09-21T03:45:44;5.20;99.90
44695;DHT22;32845;59.422;17.930;2022-09-21T03:50:16;5.20;99.90
44695;DHT22;32845;59.422;17.930;2022-09-21T03:54:47;5.20;99.90
44695;DHT22;32845;59.422;17.930;2022-09-21T03:59:17;5.30;99.90
44695;DHT22;32845;59.422;17.930;2022-09-21T04:03:48;5.30;99.90
44695;DHT22;32845;59.422;17.930;2022-09-21T04:08:19;5.30;99.90
44695;DHT22;32845;59.422;17.930;2022-09-21T04:12:49;5.40;99.90
44695;DHT22;32845;59.422;17.930;2022-09-21T04:17:20;5.40;99.90
44695;DHT22;32845;59.422;17.930;2022-09-21T04:21:51;5.40;99.90
44695;DHT22;32845;59.422;17.930;2022-09-21T04:26:25;5.40;99.90
44695;DHT22;32845;59.422;17.930;2022-09-21T04:30:56;5.40;99.90
44695;DHT22;32845;59.422;17.930;2022-09-21T04:35:27;5.40;99.90
44695;DHT22;32845;59.422;17.930;2022-09-21T04:39:57;5.40;99.90
44695;DHT22;32845;59.422;17.930;2022-09-21T04:44:33;5.30;99.90
44695;DHT22;32845;59.422;17.930;2022-09-21T04:49:04;5.20;99.90
44695;DHT22;32845;59.422;17.930;2022-09-21T04:53:36;5.20;99.90
44695;DHT22;32845;59.422;17.930;2022-09-21T04:58:07;5.20;99.90
44695;DHT22;32845;59.422;17.930;2022-09-21T05:02:38;5.20;99.90
44695;DHT22;32845;59.422;17.930;2022-09-21T05:07:09;5.20;99.90
44695;DHT22;32845;59.422;17.930;2022-09-21T05:11:39;5.20;99.90
44695;DHT22;32845;59.422;17.930;2022-09-21T05:16:11;5.20;99.90
44695;DHT22;32845;59.422;17.930;2022-09-21T05:20:41;5.20;99.90
44695;DHT22;32845;59.422;17.930;2022-09-21T05:25:12;5.20;99.90
44695;DHT22;32845;59.422;17.930;2022-09-21T05:29:43;5.20;99.90
44695;DHT22;32845;59.422;17.930;2022-09-21T05:39:06;5.20;99.90
44695;DHT22;32845;59.422;17.930;2022-09-21T05:43:37;5.30;99.90
44695;DHT22;32845;59.422;17.930;2022-09-21T05:57:36;5.40;99.90
44695;DHT22;32845;59.422;17.930;2022-09-21T06:06:54;5.40;99.90
44695;DHT22;32845;59.422;17.930;2022-09-21T06:11:25;5.50;99.90
44695;DHT22;32845;59.422;17.930;2022-09-21T06:16:01;5.60;99.90
44695;DHT22;32845;59.422;17.930;2022-09-21T06:20:32;5.70;99.90
44695;DHT22;32845;59.422;17.930;2022-09-21T06:25:04;5.80;99.90
44695;DHT22;32845;59.422;17.930;2022-09-21T06:29:34;6.00;99.90
44695;DHT22;32845;59.422;17.930;2022-09-21T06:34:05;6.10;99.90
44695;DHT22;32845;59.422;17.930;2022-09-21T06:38:41;6.20;99.90
44695;DHT22;32845;59.422;17.930;2022-09-21T06:43:11;6.30;99.90
44695;DHT22;32845;59.422;17.930;2022-09-21T06:47:46;6.50;99.90
44695;DHT22;32845;59.422;17.930;2022-09-21T06:52:17;6.70;99.90
44695;DHT22;32845;59.422;17.930;2022-09-21T06:56:48;6.90;99.90
44695;DHT22;32845;59.422;17.930;2022-09-21T07:01:19;7.00;99.90
44695;DHT22;32845;59.422;17.930;2022-09-21T07:05:49;7.20;99.90
44695;DHT22;32845;59.422;17.930;2022-09-21T07:10:20;7.60;99.90
44695;DHT22;32845;59.422;17.930;2022-09-21T07:14:51;7.90;99.90
44695;DHT22;32845;59.422;17.930;2022-09-21T07:19:22;8.20;99.90
44695;DHT22;32845;59.422;17.930;2022-09-21T07:23:52;8.40;99.90
44695;DHT22;32845;59.422;17.930;2022-09-21T07:28:23;8.50;99.90
44695;DHT22;32845;59.422;17.930;2022-09-21T07:32:54;8.70;99.90
44695;DHT22;32845;59.422;17.930;2022-09-21T07:37:25;8.90;99.90
44695;DHT22;32845;59.422;17.930;2022-09-21T07:41:56;9.10;99.90
44695;DHT22;32845;59.422;17.930;2022-09-21T07:46:28;9.10;99.90
44695;DHT22;32845;59.422;17.930;2022-09-21T07:51:03;9.30;99.90
44695;DHT22;32845;59.422;17.930;2022-09-21T07:55:37;9.40;99.90
44695;DHT22;32845;59.422;17.930;2022-09-21T08:00:08;9.50;99.90
44695;DHT22;32845;59.422;17.930;2022-09-21T08:04:39;9.70;99.90
44695;DHT22;32845;59.422;17.930;2022-09-21T08:09:10;9.80;99.90
44695;DHT22;32845;59.422;17.930;2022-09-21T08:13:40;9.90;99.90
44695;DHT22;32845;59.422;17.930;2022-09-21T08:18:11;10.00;99.90
44695;DHT22;32845;59.422;17.930;2022-09-21T08:22:42;10.10;99.90
44695;DHT22;32845;59.422;17.930;2022-09-21T08:27:12;10.20;99.90
44695;DHT22;32845;59.422;17.930;2022-09-21T08:31:43;10.30;99.90
44695;DHT22;32845;59.422;17.930;2022-09-21T08:36:20;10.30;99.90
44695;DHT22;32845;59.422;17.930;2022-09-21T08:40:52;10.50;99.90
44695;DHT22;32845;59.422;17.930;2022-09-21T08:45:29;10.60;99.90
44695;DHT22;32845;59.422;17.930;2022-09-21T08:50:03;10.70;99.90
44695;DHT22;32845;59.422;17.930;2022-09-21T08:59:28;10.90;99.90
44695;DHT22;32845;59.422;17.930;2022-09-21T09:14:35;11.30;99.90
44695;DHT22;32845;59.422;17.930;2022-09-21T09:19:34;11.50;99.90
44695;DHT22;32845;59.422;17.930;2022-09-21T09:24:31;11.70;99.90
44695;DHT22;32845;59.422;17.930;2022-09-21T09:34:37;12.00;99.90
44695;DHT22;32845;59.422;17.930;2022-09-21T09:39:12;12.20;99.90
44695;DHT22;32845;59.422;17.930;2022-09-21T09:44:19;12.30;99.90
44695;DHT22;32845;59.422;17.930;2022-09-21T09:53:46;12.80;99.90
44695;DHT22;32845;59.422;17.930;2022-09-21T10:03:16;13.10;99.90
44695;DHT22;32845;59.422;17.930;2022-09-21T10:07:48;13.30;99.90
44695;DHT22;32845;59.422;17.930;2022-09-21T10:12:24;13.40;99.90
44695;DHT22;32845;59.422;17.930;2022-09-21T10:17:11;13.40;99.90
44695;DHT22;32845;59.422;17.930;2022-09-21T10:21:45;13.40;99.90
44695;DHT22;32845;59.422;17.930;2022-09-21T10:26:18;13.60;99.90
44695;DHT22;32845;59.422;17.930;2022-09-21T10:30:49;13.90;99.90
44695;DHT22;32845;59.422;17.930;2022-09-21T10:35:19;14.50;99.90
44695;DHT22;32845;59.422;17.930;2022-09-21T10:39:50;15.10;99.90
44695;DHT22;32845;59.422;17.930;2022-09-21T10:49:27;16.80;99.90
44695;DHT22;32845;59.422;17.930;2022-09-21T10:53:58;17.80;99.90
44695;DHT22;32845;59.422;17.930;2022-09-21T10:58:30;18.70;99.90
44695;DHT22;32845;59.422;17.930;2022-09-21T11:03:25;19.20;99.90
44695;DHT22;32845;59.422;17.930;2022-09-21T11:23:04;20.60;99.80
44695;DHT22;32845;59.422;17.930;2022-09-21T11:27:41;21.00;97.70
44695;DHT22;32845;59.422;17.930;2022-09-21T11:41:52;21.80;97.70
44695;DHT22;32845;59.422;17.930;2022-09-21T11:46:58;21.10;94.40
44695;DHT22;32845;59.422;17.930;2022-09-21T11:56:35;19.40;93.70
44695;DHT22;32845;59.422;17.930;2022-09-21T12:01:33;18.90;97.30
44695;DHT22;32845;59.422;17.930;2022-09-21T12:10:55;17.60;96.30
44695;DHT22;32845;59.422;17.930;2022-09-21T12:15:48;17.50;98.10
44695;DHT22;32845;59.422;17.930;2022-09-21T12:25:34;18.00;98.60
44695;DHT22;32845;59.422;17.930;2022-09-21T12:30:19;18.20;94.70
44695;DHT22;32845;59.422;17.930;2022-09-21T12:35:05;18.40;96.10
44695;DHT22;32845;59.422;17.930;2022-09-21T12:44:50;18.60;94.50
44695;DHT22;32845;59.422;17.930;2022-09-21T12:49:28;18.70;93.30
44695;DHT22;32845;59.422;17.930;2022-09-21T12:54:08;18.70;95.40
44695;DHT22;32845;59.422;17.930;2022-09-21T13:03:26;18.60;95.10
44695;DHT22;32845;59.422;17.930;2022-09-21T13:08:12;18.50;94.20
44695;DHT22;32845;59.422;17.930;2022-09-21T13:12:50;18.30;92.90
44695;DHT22;32845;59.422;17.930;2022-09-21T13:17:32;18.00;94.30
44695;DHT22;32845;59.422;17.930;2022-09-21T13:26:57;17.60;93.20
44695;DHT22;32845;59.422;17.930;2022-09-21T13:31:41;17.40;93.90
44695;DHT22;32845;59.422;17.930;2022-09-21T13:36:34;17.00;94.30
44695;DHT22;32845;59.422;17.930;2022-09-21T13:45:54;16.40;94.60
44695;DHT22;32845;59.422;17.930;2022-09-21T13:50:36;16.10;95.80
44695;DHT22;32845;59.422;17.930;2022-09-21T13:55:27;15.70;96.20
44695;DHT22;32845;59.422;17.930;2022-09-21T14:04:47;15.20;96.70
44695;DHT22;32845;59.422;17.930;2022-09-21T14:18:36;15.20;96.20
44695;DHT22;32845;59.422;17.930;2022-09-21T14:23:31;15.20;97.20
44695;DHT22;32845;59.422;17.930;2022-09-21T14:28:04;15.00;97.60
44695;DHT22;32845;59.422;17.930;2022-09-21T14:32:58;14.80;96.80
44695;DHT22;32845;59.422;17.930;2022-09-21T14:37:38;14.70;96.20
44695;DHT22;32845;59.422;17.930;2022-09-21T14:42:15;14.60;97.00
44695;DHT22;32845;59.422;17.930;2022-09-21T14:46:58;14.50;97.70
44695;DHT22;32845;59.422;17.930;2022-09-21T14:51:42;14.50;97.80
44695;DHT22;32845;59.422;17.930;2022-09-21T15:06:35;14.50;97.30
44695;DHT22;32845;59.422;17.930;2022-09-21T15:11:30;14.40;97.40
44695;DHT22;32845;59.422;17.930;2022-09-21T15:20:59;14.20;97.20
44695;DHT22;32845;59.422;17.930;2022-09-21T15:25:38;14.10;99.10
44695;DHT22;32845;59.422;17.930;2022-09-21T15:30:23;13.90;99.10
44695;DHT22;32845;59.422;17.930;2022-09-21T15:35:05;13.80;99.00
44695;DHT22;32845;59.422;17.930;2022-09-21T15:39:36;13.70;99.50
44695;DHT22;32845;59.422;17.930;2022-09-21T15:44:21;13.60;99.50
44695;DHT22;32845;59.422;17.930;2022-09-21T15:48:52;13.40;99.90
44695;DHT22;32845;59.422;17.930;2022-09-21T15:53:28;13.30;99.90
44695;DHT22;32845;59.422;17.930;2022-09-21T15:58:01;13.20;99.90
44695;DHT22;32845;59.422;17.930;2022-09-21T16:02:37;13.00;99.90
44695;DHT22;32845;59.422;17.930;2022-09-21T16:11:58;12.80;99.90
44695;DHT22;32845;59.422;17.930;2022-09-21T16:16:28;12.70;99.90
44695;DHT22;32845;59.422;17.930;2022-09-21T16:21:07;12.60;99.90
44695;DHT22;32845;59.422;17.930;2022-09-21T16:25:38;12.50;99.90
44695;DHT22;32845;59.422;17.930;2022-09-21T16:35:26;12.20;99.90
44695;DHT22;32845;59.422;17.930;2022-09-21T16:40:01;12.00;99.90
44695;DHT22;32845;59.422;17.930;2022-09-21T16:44:31;12.00;99.90
44695;DHT22;32845;59.422;17.930;2022-09-21T16:49:15;11.90;99.90
44695;DHT22;32845;59.422;17.930;2022-09-21T16:53:51;11.90;99.90
44695;DHT22;32845;59.422;17.930;2022-09-21T16:58:32;11.80;99.90
44695;DHT22;32845;59.422;17.930;2022-09-21T17:03:03;11.60;99.90
44695;DHT22;32845;59.422;17.930;2022-09-21T17:07:33;11.50;99.90
44695;DHT22;32845;59.422;17.930;2022-09-21T17:12:10;11.40;99.90
44695;DHT22;32845;59.422;17.930;2022-09-21T17:16:50;11.30;99.90
44695;DHT22;32845;59.422;17.930;2022-09-21T17:21:22;11.20;99.90
44695;DHT22;32845;59.422;17.930;2022-09-21T17:25:53;11.00;99.90
44695;DHT22;32845;59.422;17.930;2022-09-21T17:30:25;11.00;99.90
44695;DHT22;32845;59.422;17.930;2022-09-21T17:35:00;10.80;99.90
44695;DHT22;32845;59.422;17.930;2022-09-21T17:39:40;10.70;99.90
44695;DHT22;32845;59.422;17.930;2022-09-21T17:48:53;10.50;99.90
44695;DHT22;32845;59.422;17.930;2022-09-21T17:53:23;10.40;99.90
44695;DHT22;32845;59.422;17.930;2022-09-21T18:02:53;10.10;99.90
44695;DHT22;32845;59.422;17.930;2022-09-21T18:07:24;10.10;99.90
44695;DHT22;32845;59.422;17.930;2022-09-21T18:17:07;9.90;99.90
44695;DHT22;32845;59.422;17.930;2022-09-21T18:21:42;9.80;99.90
44695;DHT22;32845;59.422;17.930;2022-09-21T18:26:15;9.70;99.90
44695;DHT22;32845;59.422;17.930;2022-09-21T18:40:57;9.40;99.90
44695;DHT22;32845;59.422;17.930;2022-09-21T18:45:39;9.30;99.90
44695;DHT22;32845;59.422;17.930;2022-09-21T18:50:54;9.20;99.90
44695;DHT22;32845;59.422;17.930;2022-09-21T18:55:26;9.10;99.90
44695;DHT22;32845;59.422;17.930;2022-09-21T18:59:58;9.00;99.90
44695;DHT22;32845;59.422;17.930;2022-09-21T19:04:29;8.90;99.90
44695;DHT22;32845;59.422;17.930;2022-09-21T19:33:23;8.40;99.90
44695;DHT22;32845;59.422;17.930;2022-09-21T19:38:02;8.40;99.90
44695;DHT22;32845;59.422;17.930;2022-09-21T19:42:47;8.30;99.90
44695;DHT22;32845;59.422;17.930;2022-09-21T19:47:32;8.20;99.90
44695;DHT22;32845;59.422;17.930;2022-09-21T19:52:04;8.20;99.90
44695;DHT22;32845;59.422;17.930;2022-09-21T19:56:41;8.10;99.90
44695;DHT22;32845;59.422;17.930;2022-09-21T20:01:34;8.00;99.90
44695;DHT22;32845;59.422;17.930;2022-09-21T20:06:19;8.00;99.90
44695;DHT22;32845;59.422;17.930;2022-09-21T20:11:03;7.90;99.90
44695;DHT22;32845;59.422;17.930;2022-09-21T20:20:24;7.80;99.90
44695;DHT22;32845;59.422;17.930;2022-09-21T20:25:01;7.70;99.90
44695;DHT22;32845;59.422;17.930;2022-09-21T20:29:32;7.60;99.90
44695;DHT22;32845;59.422;17.930;2022-09-21T20:34:03;7.60;99.90
44695;DHT22;32845;59.422;17.930;2022-09-21T20:38:33;7.50;99.90
44695;DHT22;32845;59.422;17.930;2022-09-21T20:43:05;7.40;99.90
44695;DHT22;32845;59.422;17.930;2022-09-21T20:47:42;7.40;99.90
44695;DHT22;32845;59.422;17.930;2022-09-21T20:52:14;7.40;99.90
44695;DHT22;32845;59.422;17.930;2022-09-21T20:56:46;7.30;99.90
44695;DHT22;32845;59.422;17.930;2022-09-21T21:01:16;7.20;99.90
44695;DHT22;32845;59.422;17.930;2022-09-21T21:05:47;7.20;99.90
44695;DHT22;32845;59.422;17.930;2022-09-21T21:10:18;7.10;99.90
44695;DHT22;32845;59.422;17.930;2022-09-21T21:14:48;7.10;99.90
44695;DHT22;32845;59.422;17.930;2022-09-21T21:19:19;7.00;99.90
44695;DHT22;32845;59.422;17.930;2022-09-21T21:23:51;6.90;99.90
44695;DHT22;32845;59.422;17.930;2022-09-21T21:28:40;6.90;99.90
44695;DHT22;32845;59.422;17.930;2022-09-21T21:33:10;6.80;99.90
44695;DHT22;32845;59.422;17.930;2022-09-21T21:37:41;6.80;99.90
44695;DHT22;32845;59.422;17.930;2022-09-21T21:42:12;6.70;99.90
44695;DHT22;32845;59.422;17.930;2022-09-21T21:46:43;6.70;99.90
44695;DHT22;32845;59.422;17.930;2022-09-21T21:51:13;6.60;99.90
44695;DHT22;32845;59.422;17.930;2022-09-21T21:55:44;6.60;99.90
44695;DHT22;32845;59.422;17.930;2022-09-21T22:00:15;6.50;99.90
44695;DHT22;32845;59.422;17.930;2022-09-21T22:04:45;6.50;99.90
44695;DHT22;32845;59.422;17.930;2022-09-21T22:09:16;6.50;99.90
44695;DHT22;32845;59.422;17.930;2022-09-21T22:13:48;6.40;99.90
44695;DHT22;32845;59.422;17.930;2022-09-21T22:18:19;6.40;99.90
44695;DHT22;32845;59.422;17.930;2022-09-21T22:22:50;6.40;99.90
44695;DHT22;32845;59.422;17.930;2022-09-21T22:27:21;6.40;99.90
44695;DHT22;32845;59.422;17.930;2022-09-21T22:31:51;6.50;99.90
44695;DHT22;32845;59.422;17.930;2022-09-21T22:36:29;6.50;99.90
44695;DHT22;32845;59.422;17.930;2022-09-21T22:41:02;6.60;99.90
44695;DHT22;32845;59.422;17.930;2022-09-21T22:45:33;6.60;99.90
44695;DHT22;32845;59.422;17.930;2022-09-21T22:50:04;6.60;99.90
44695;DHT22;32845;59.422;17.930;2022-09-21T22:54:35;6.60;99.90
44695;DHT22;32845;59.422;17.930;2022-09-21T22:59:05;6.60;99.90
44695;DHT22;32845;59.422;17.930;2022-09-21T23:03:37;6.50;99.90
44695;DHT22;32845;59.422;17.930;2022-09-21T23:08:09;6.40;99.90
44695;DHT22;32845;59.422;17.930;2022-09-21T23:12:39;6.40;99.90
44695;DHT22;32845;59.422;17.930;2022-09-21T23:17:10;6.40;99.90
44695;DHT22;32845;59.422;17.930;2022-09-21T23:21:43;6.30;99.90
44695;DHT22;32845;59.422;17.930;2022-09-21T23:30:44;6.20;99.90
44695;DHT22;32845;59.422;17.930;2022-09-21T23:35:15;6.10;99.90
44695;DHT22;32845;59.422;17.930;2022-09-21T23:39:46;6.10;99.90
44695;DHT22;32845;59.422;17.930;2022-09-21T23:44:17;6.10;99.90
44695;DHT22;32845;59.422;17.930;2022-09-21T23:48:49;6.00;99.90
44695;DHT22;32845;59.422;17.930;2022-09-21T23:53:20;5.90;99.90
44695;DHT22;32845;59.422;17.930;2022-09-21T23:57:51;5.90;99.90
